sensor_id;sensor_type;location;lat;lon;timestamp;pressure;altitude;pressure_sealevel;temperature;humidity
77240;BME280;66258;53.170;-2.240;2024-02-23T00:01:18;96946.38;;;13.18;77.79
77240;BME280;66258;53.170;-2.240;2024-02-23T00:03:45;96945.25;;;13.14;77.49
77240;BME280;66258;53.170;-2.240;2024-02-23T00:06:12;96945.31;;;13.19;77.04
77240;BME280;66258;53.170;-2.240;2024-02-23T00:08:39;96945.56;;;13.18;76.74
77240;BME280;66258;53.170;-2.240;2024-02-23T00:11:05;96929.16;;;13.02;76.98
77240;BME280;66258;53.170;-2.240;2024-02-23T00:13:34;96935.91;;;12.95;77.78
77240;BME280;66258;53.170;-2.240;2024-02-23T00:16:00;96936.50;;;13.02;77.34
77240;BME280;66258;53.170;-2.240;2024-02-23T00:18:27;96933.44;;;12.93;77.54
77240;BME280;66258;53.170;-2.240;2024-02-23T00:20:54;96933.16;;;12.90;77.88
77240;BME280;66258;53.170;-2.240;2024-02-23T00:23:21;96934.78;;;12.86;77.94
77240;BME280;66258;53.170;-2.240;2024-02-23T00:25:48;96936.22;;;12.98;77.07
77240;BME280;66258;53.170;-2.240;2024-02-23T00:28:14;96930.78;;;12.98;77.29
77240;BME280;66258;53.170;-2.240;2024-02-23T00:30:42;96923.59;;;12.77;77.74
77240;BME280;66258;53.170;-2.240;2024-02-23T00:33:09;96920.88;;;12.77;77.83
77240;BME280;66258;53.170;-2.240;2024-02-23T00:35:36;96917.66;;;12.80;77.97
77240;BME280;66258;53.170;-2.240;2024-02-23T00:38:03;96922.59;;;12.93;77.42
77240;BME280;66258;53.170;-2.240;2024-02-23T00:40:30;96923.66;;;12.87;78.73
77240;BME280;66258;53.170;-2.240;2024-02-23T00:42:57;96925.22;;;12.78;79.89
77240;BME280;66258;53.170;-2.240;2024-02-23T00:45:23;96933.00;;;13.06;79.27
77240;BME280;66258;53.170;-2.240;2024-02-23T00:47:51;96926.22;;;13.09;79.24
77240;BME280;66258;53.170;-2.240;2024-02-23T00:50:18;96913.34;;;12.89;79.53
77240;BME280;66258;53.170;-2.240;2024-02-23T00:52:45;96909.47;;;12.75;79.28
77240;BME280;66258;53.170;-2.240;2024-02-23T00:55:12;96911.34;;;13.17;79.34
77240;BME280;66258;53.170;-2.240;2024-02-23T00:57:39;96905.13;;;13.21;78.48
77240;BME280;66258;53.170;-2.240;2024-02-23T01:00:06;96905.13;;;12.74;78.88
77240;BME280;66258;53.170;-2.240;2024-02-23T01:02:33;96909.34;;;13.02;79.36
77240;BME280;66258;53.170;-2.240;2024-02-23T01:05:02;96907.00;;;13.16;78.78
77240;BME280;66258;53.170;-2.240;2024-02-23T01:07:28;96897.06;;;12.47;79.47
77240;BME280;66258;53.170;-2.240;2024-02-23T01:09:58;96903.75;;;12.66;81.59
77240;BME280;66258;53.170;-2.240;2024-02-23T01:12:25;96903.56;;;12.83;80.87
77240;BME280;66258;53.170;-2.240;2024-02-23T01:14:53;96900.31;;;12.86;80.06
77240;BME280;66258;53.170;-2.240;2024-02-23T01:17:19;96902.84;;;13.03;79.78
77240;BME280;66258;53.170;-2.240;2024-02-23T01:19:46;96899.53;;;12.96;80.11
77240;BME280;66258;53.170;-2.240;2024-02-23T01:22:14;96900.38;;;13.01;79.00
77240;BME280;66258;53.170;-2.240;2024-02-23T01:24:41;96905.84;;;13.12;78.97
77240;BME280;66258;53.170;-2.240;2024-02-23T01:27:08;96901.47;;;13.00;79.53
77240;BME280;66258;53.170;-2.240;2024-02-23T01:29:35;96905.72;;;12.81;80.37
77240;BME280;66258;53.170;-2.240;2024-02-23T01:32:02;96899.50;;;12.86;80.62
77240;BME280;66258;53.170;-2.240;2024-02-23T01:34:28;96902.44;;;12.79;80.66
77240;BME280;66258;53.170;-2.240;2024-02-23T01:36:55;96902.06;;;13.13;79.40
77240;BME280;66258;53.170;-2.240;2024-02-23T01:39:23;96910.72;;;13.09;79.22
77240;BME280;66258;53.170;-2.240;2024-02-23T01:41:50;96906.84;;;12.90;81.40
77240;BME280;66258;53.170;-2.240;2024-02-23T01:44:17;96906.19;;;13.20;80.37
77240;BME280;66258;53.170;-2.240;2024-02-23T01:46:44;96912.16;;;13.17;79.65
77240;BME280;66258;53.170;-2.240;2024-02-23T01:49:11;96906.13;;;13.10;80.37
77240;BME280;66258;53.170;-2.240;2024-02-23T01:51:38;96921.41;;;13.21;80.28
77240;BME280;66258;53.170;-2.240;2024-02-23T01:54:06;96921.97;;;13.23;80.22
77240;BME280;66258;53.170;-2.240;2024-02-23T01:56:35;96913.53;;;13.20;80.79
77240;BME280;66258;53.170;-2.240;2024-02-23T01:59:03;96915.13;;;13.16;80.89
77240;BME280;66258;53.170;-2.240;2024-02-23T02:01:30;96909.22;;;13.24;80.98
77240;BME280;66258;53.170;-2.240;2024-02-23T02:03:58;96915.44;;;13.19;80.77
77240;BME280;66258;53.170;-2.240;2024-02-23T02:06:25;96914.94;;;13.32;80.75
77240;BME280;66258;53.170;-2.240;2024-02-23T02:08:52;96918.44;;;13.23;81.08
77240;BME280;66258;53.170;-2.240;2024-02-23T02:11:19;96909.13;;;13.08;81.38
77240;BME280;66258;53.170;-2.240;2024-02-23T02:13:47;96908.00;;;13.04;80.51
77240;BME280;66258;53.170;-2.240;2024-02-23T02:16:14;96911.84;;;13.08;81.08
77240;BME280;66258;53.170;-2.240;2024-02-23T02:18:41;96905.28;;;13.04;80.90
77240;BME280;66258;53.170;-2.240;2024-02-23T02:21:08;96909.66;;;13.11;80.42
77240;BME280;66258;53.170;-2.240;2024-02-23T02:23:34;96906.94;;;13.11;80.06
77240;BME280;66258;53.170;-2.240;2024-02-23T02:26:01;96907.66;;;12.91;81.14
77240;BME280;66258;53.170;-2.240;2024-02-23T02:28:28;96898.88;;;12.73;81.83
77240;BME280;66258;53.170;-2.240;2024-02-23T02:30:56;96900.22;;;12.66;82.38
77240;BME280;66258;53.170;-2.240;2024-02-23T02:33:23;96897.81;;;12.74;81.65
77240;BME280;66258;53.170;-2.240;2024-02-23T02:35:50;96897.09;;;12.94;81.88
77240;BME280;66258;53.170;-2.240;2024-02-23T02:38:16;96891.63;;;12.84;82.92
77240;BME280;66258;53.170;-2.240;2024-02-23T02:40:43;96888.13;;;12.94;82.39
77240;BME280;66258;53.170;-2.240;2024-02-23T02:43:10;96877.19;;;12.79;82.83
77240;BME280;66258;53.170;-2.240;2024-02-23T02:45:37;96871.44;;;12.70;82.28
77240;BME280;66258;53.170;-2.240;2024-02-23T02:48:06;96884.53;;;12.78;81.85
77240;BME280;66258;53.170;-2.240;2024-02-23T02:50:33;96880.75;;;12.89;82.26
77240;BME280;66258;53.170;-2.240;2024-02-23T02:53:00;96874.22;;;12.80;82.15
77240;BME280;66258;53.170;-2.240;2024-02-23T02:55:27;96873.19;;;12.86;82.28
77240;BME280;66258;53.170;-2.240;2024-02-23T02:57:53;96874.63;;;12.57;83.19
77240;BME280;66258;53.170;-2.240;2024-02-23T03:00:20;96878.00;;;12.79;83.23
77240;BME280;66258;53.170;-2.240;2024-02-23T03:02:47;96878.84;;;12.80;83.35
77240;BME280;66258;53.170;-2.240;2024-02-23T03:05:15;96882.97;;;12.87;83.39
77240;BME280;66258;53.170;-2.240;2024-02-23T03:07:42;96885.59;;;12.77;83.43
77240;BME280;66258;53.170;-2.240;2024-02-23T03:10:08;96874.25;;;12.90;82.89
77240;BME280;66258;53.170;-2.240;2024-02-23T03:12:35;96870.28;;;12.56;84.05
77240;BME280;66258;53.170;-2.240;2024-02-23T03:15:02;96868.25;;;12.78;83.54
77240;BME280;66258;53.170;-2.240;2024-02-23T03:17:29;96865.28;;;12.85;83.79
77240;BME280;66258;53.170;-2.240;2024-02-23T03:19:56;96858.75;;;12.81;84.03
77240;BME280;66258;53.170;-2.240;2024-02-23T03:22:25;96854.09;;;12.71;83.92
77240;BME280;66258;53.170;-2.240;2024-02-23T03:24:51;96854.44;;;12.90;83.69
77240;BME280;66258;53.170;-2.240;2024-02-23T03:27:18;96858.75;;;12.81;83.82
77240;BME280;66258;53.170;-2.240;2024-02-23T03:29:45;96857.19;;;12.43;85.03
77240;BME280;66258;53.170;-2.240;2024-02-23T03:32:12;96856.03;;;12.81;84.73
77240;BME280;66258;53.170;-2.240;2024-02-23T03:34:38;96849.97;;;12.58;84.81
77240;BME280;66258;53.170;-2.240;2024-02-23T03:37:05;96849.88;;;12.48;85.94
77240;BME280;66258;53.170;-2.240;2024-02-23T03:39:33;96845.09;;;12.18;85.68
77240;BME280;66258;53.170;-2.240;2024-02-23T03:42:00;96845.06;;;12.55;85.18
77240;BME280;66258;53.170;-2.240;2024-02-23T03:44:27;96853.25;;;12.70;84.28
77240;BME280;66258;53.170;-2.240;2024-02-23T03:46:53;96851.38;;;12.71;84.36
77240;BME280;66258;53.170;-2.240;2024-02-23T03:49:20;96869.81;;;12.64;84.25
77240;BME280;66258;53.170;-2.240;2024-02-23T03:51:47;96863.31;;;12.70;84.45
77240;BME280;66258;53.170;-2.240;2024-02-23T03:54:14;96865.53;;;12.78;84.76
77240;BME280;66258;53.170;-2.240;2024-02-23T03:56:42;96862.38;;;12.49;86.08
77240;BME280;66258;53.170;-2.240;2024-02-23T03:59:09;96875.63;;;12.41;86.90
77240;BME280;66258;53.170;-2.240;2024-02-23T04:01:37;96870.28;;;12.56;86.82
77240;BME280;66258;53.170;-2.240;2024-02-23T04:04:04;96871.47;;;12.75;85.68
77240;BME280;66258;53.170;-2.240;2024-02-23T04:06:31;96869.13;;;12.42;86.47
77240;BME280;66258;53.170;-2.240;2024-02-23T04:08:58;96879.03;;;12.63;86.16
77240;BME280;66258;53.170;-2.240;2024-02-23T04:11:25;96880.97;;;12.30;87.98
77240;BME280;66258;53.170;-2.240;2024-02-23T04:13:53;96874.81;;;12.40;88.44
77240;BME280;66258;53.170;-2.240;2024-02-23T04:16:22;96868.09;;;12.53;87.14
77240;BME280;66258;53.170;-2.240;2024-02-23T04:18:49;96872.47;;;12.59;85.77
77240;BME280;66258;53.170;-2.240;2024-02-23T04:21:16;96867.56;;;12.56;85.14
77240;BME280;66258;53.170;-2.240;2024-02-23T04:23:43;96871.88;;;12.47;85.07
77240;BME280;66258;53.170;-2.240;2024-02-23T04:26:10;96864.22;;;12.38;85.60
77240;BME280;66258;53.170;-2.240;2024-02-23T04:28:38;96872.88;;;12.35;84.95
77240;BME280;66258;53.170;-2.240;2024-02-23T04:31:06;96867.97;;;12.32;85.76
77240;BME280;66258;53.170;-2.240;2024-02-23T04:33:34;96871.22;;;12.34;85.59
77240;BME280;66258;53.170;-2.240;2024-02-23T04:36:01;96865.22;;;12.27;86.66
77240;BME280;66258;53.170;-2.240;2024-02-23T04:38:27;96863.91;;;12.35;85.36
77240;BME280;66258;53.170;-2.240;2024-02-23T04:40:54;96872.81;;;12.25;85.49
77240;BME280;66258;53.170;-2.240;2024-02-23T04:43:21;96873.66;;;12.31;86.13
77240;BME280;66258;53.170;-2.240;2024-02-23T04:45:47;96877.06;;;12.16;86.88
77240;BME280;66258;53.170;-2.240;2024-02-23T04:48:15;96877.38;;;12.20;87.14
77240;BME280;66258;53.170;-2.240;2024-02-23T04:50:42;96876.13;;;12.37;86.10
77240;BME280;66258;53.170;-2.240;2024-02-23T04:53:09;96874.50;;;12.36;85.68
77240;BME280;66258;53.170;-2.240;2024-02-23T04:55:36;96880.97;;;12.30;86.19
77240;BME280;66258;53.170;-2.240;2024-02-23T04:58:02;96870.13;;;12.30;85.64
77240;BME280;66258;53.170;-2.240;2024-02-23T05:00:29;96879.06;;;12.26;85.49
77240;BME280;66258;53.170;-2.240;2024-02-23T05:02:56;96873.28;;;12.17;86.72
77240;BME280;66258;53.170;-2.240;2024-02-23T05:05:24;96870.13;;;12.30;86.22
77240;BME280;66258;53.170;-2.240;2024-02-23T05:07:51;96877.16;;;12.31;85.92
77240;BME280;66258;53.170;-2.240;2024-02-23T05:10:17;96878.25;;;12.25;85.73
77240;BME280;66258;53.170;-2.240;2024-02-23T05:12:44;96884.19;;;12.22;86.13
77240;BME280;66258;53.170;-2.240;2024-02-23T05:15:11;96886.53;;;12.14;86.38
77240;BME280;66258;53.170;-2.240;2024-02-23T05:17:38;96879.56;;;12.23;85.87
77240;BME280;66258;53.170;-2.240;2024-02-23T05:20:05;96883.91;;;11.92;87.16
77240;BME280;66258;53.170;-2.240;2024-02-23T05:22:34;96877.03;;;11.79;88.57
77240;BME280;66258;53.170;-2.240;2024-02-23T05:25:01;96884.53;;;11.99;87.67
77240;BME280;66258;53.170;-2.240;2024-02-23T05:27:27;96888.31;;;11.98;88.20
77240;BME280;66258;53.170;-2.240;2024-02-23T05:29:54;96892.09;;;11.97;88.83
77240;BME280;66258;53.170;-2.240;2024-02-23T05:32:20;96894.25;;;11.95;88.96
77240;BME280;66258;53.170;-2.240;2024-02-23T05:34:47;96900.13;;;12.19;88.79
77240;BME280;66258;53.170;-2.240;2024-02-23T05:37:14;96901.03;;;12.29;88.57
77240;BME280;66258;53.170;-2.240;2024-02-23T05:39:42;96903.53;;;12.36;88.56
77240;BME280;66258;53.170;-2.240;2024-02-23T05:42:12;96904.91;;;12.38;88.42
77240;BME280;66258;53.170;-2.240;2024-02-23T05:44:39;96904.00;;;12.28;88.52
77240;BME280;66258;53.170;-2.240;2024-02-23T05:47:06;96907.88;;;12.37;88.01
77240;BME280;66258;53.170;-2.240;2024-02-23T05:49:32;96908.16;;;12.41;87.90
77240;BME280;66258;53.170;-2.240;2024-02-23T05:51:59;96915.16;;;12.31;87.91
77240;BME280;66258;53.170;-2.240;2024-02-23T05:54:26;96913.09;;;12.49;88.23
77240;BME280;66258;53.170;-2.240;2024-02-23T05:56:54;96918.81;;;12.52;88.29
77240;BME280;66258;53.170;-2.240;2024-02-23T05:59:21;96912.81;;;12.45;88.72
77240;BME280;66258;53.170;-2.240;2024-02-23T06:01:47;96912.69;;;12.67;88.79
77240;BME280;66258;53.170;-2.240;2024-02-23T06:04:14;96920.31;;;12.75;88.05
77240;BME280;66258;53.170;-2.240;2024-02-23T06:06:41;96914.59;;;12.71;88.02
77240;BME280;66258;53.170;-2.240;2024-02-23T06:09:08;96907.56;;;12.33;88.75
77240;BME280;66258;53.170;-2.240;2024-02-23T06:11:35;96918.56;;;12.54;89.08
77240;BME280;66258;53.170;-2.240;2024-02-23T06:14:03;96920.13;;;12.45;89.65
77240;BME280;66258;53.170;-2.240;2024-02-23T06:16:30;96919.47;;;12.64;89.26
77240;BME280;66258;53.170;-2.240;2024-02-23T06:18:56;96926.47;;;12.60;89.46
77240;BME280;66258;53.170;-2.240;2024-02-23T06:21:23;96928.97;;;12.67;89.00
77240;BME280;66258;53.170;-2.240;2024-02-23T06:23:50;96931.00;;;12.87;88.31
77240;BME280;66258;53.170;-2.240;2024-02-23T06:26:16;96931.81;;;12.87;87.33
77240;BME280;66258;53.170;-2.240;2024-02-23T06:28:43;96935.22;;;12.72;87.34
77240;BME280;66258;53.170;-2.240;2024-02-23T06:31:12;96932.81;;;12.76;87.05
77240;BME280;66258;53.170;-2.240;2024-02-23T06:33:39;96941.75;;;12.71;87.79
77240;BME280;66258;53.170;-2.240;2024-02-23T06:36:06;96940.44;;;12.79;87.83
77240;BME280;66258;53.170;-2.240;2024-02-23T06:38:34;96938.03;;;12.83;87.39
77240;BME280;66258;53.170;-2.240;2024-02-23T06:41:01;96931.53;;;12.84;87.01
77240;BME280;66258;53.170;-2.240;2024-02-23T06:43:28;96941.25;;;12.80;86.78
77240;BME280;66258;53.170;-2.240;2024-02-23T06:45:54;96949.88;;;12.71;87.71
77240;BME280;66258;53.170;-2.240;2024-02-23T06:48:23;96946.47;;;12.91;87.53
77240;BME280;66258;53.170;-2.240;2024-02-23T06:50:54;96941.34;;;12.95;87.57
77240;BME280;66258;53.170;-2.240;2024-02-23T06:53:20;96953.25;;;12.89;87.84
77240;BME280;66258;53.170;-2.240;2024-02-23T06:55:47;96952.50;;;12.98;87.91
77240;BME280;66258;53.170;-2.240;2024-02-23T06:58:14;96953.56;;;12.97;87.73
77240;BME280;66258;53.170;-2.240;2024-02-23T07:00:40;96957.69;;;13.05;87.65
77240;BME280;66258;53.170;-2.240;2024-02-23T07:03:07;96957.41;;;13.01;88.06
77240;BME280;66258;53.170;-2.240;2024-02-23T07:05:35;96952.81;;;13.07;87.94
77240;BME280;66258;53.170;-2.240;2024-02-23T07:08:03;96960.09;;;12.96;87.93
77240;BME280;66258;53.170;-2.240;2024-02-23T07:10:30;96970.34;;;12.89;88.73
77240;BME280;66258;53.170;-2.240;2024-02-23T07:12:57;96973.63;;;12.91;89.22
77240;BME280;66258;53.170;-2.240;2024-02-23T07:15:24;96977.44;;;12.95;89.08
77240;BME280;66258;53.170;-2.240;2024-02-23T07:17:50;96973.06;;;12.89;89.51
77240;BME280;66258;53.170;-2.240;2024-02-23T07:20:17;96976.06;;;12.93;89.25
77240;BME280;66258;53.170;-2.240;2024-02-23T07:22:45;96984.72;;;12.85;89.03
77240;BME280;66258;53.170;-2.240;2024-02-23T07:25:15;96981.16;;;12.79;89.35
77240;BME280;66258;53.170;-2.240;2024-02-23T07:27:42;96982.78;;;12.80;89.22
77240;BME280;66258;53.170;-2.240;2024-02-23T07:30:10;96982.56;;;12.87;88.97
77240;BME280;66258;53.170;-2.240;2024-02-23T07:32:37;96991.75;;;12.81;89.07
77240;BME280;66258;53.170;-2.240;2024-02-23T07:35:05;96983.81;;;12.74;89.33
77240;BME280;66258;53.170;-2.240;2024-02-23T07:37:32;96993.34;;;12.77;89.43
77240;BME280;66258;53.170;-2.240;2024-02-23T07:40:00;96992.72;;;12.64;89.90
77240;BME280;66258;53.170;-2.240;2024-02-23T07:42:26;96981.97;;;12.80;89.88
77240;BME280;66258;53.170;-2.240;2024-02-23T07:44:53;97000.34;;;12.67;90.23
77240;BME280;66258;53.170;-2.240;2024-02-23T07:47:20;96995.50;;;12.74;91.12
77240;BME280;66258;53.170;-2.240;2024-02-23T07:49:47;97000.72;;;12.81;90.90
77240;BME280;66258;53.170;-2.240;2024-02-23T07:52:13;97007.81;;;12.87;90.33
77240;BME280;66258;53.170;-2.240;2024-02-23T07:54:40;97012.22;;;12.98;90.50
77240;BME280;66258;53.170;-2.240;2024-02-23T07:57:08;97003.03;;;13.09;90.77
77240;BME280;66258;53.170;-2.240;2024-02-23T07:59:35;97010.81;;;13.28;90.49
77240;BME280;66258;53.170;-2.240;2024-02-23T08:02:02;97006.75;;;13.35;90.52
77240;BME280;66258;53.170;-2.240;2024-02-23T08:04:28;97008.72;;;13.45;89.90
77240;BME280;66258;53.170;-2.240;2024-02-23T08:06:55;97011.94;;;13.37;89.55
77240;BME280;66258;53.170;-2.240;2024-02-23T08:09:22;97011.31;;;13.20;89.49
77240;BME280;66258;53.170;-2.240;2024-02-23T08:11:48;97009.22;;;13.37;89.10
77240;BME280;66258;53.170;-2.240;2024-02-23T08:14:17;97012.72;;;13.27;89.93
77240;BME280;66258;53.170;-2.240;2024-02-23T08:16:43;97026.41;;;13.53;90.25
77240;BME280;66258;53.170;-2.240;2024-02-23T08:19:10;97022.16;;;13.77;90.46
77240;BME280;66258;53.170;-2.240;2024-02-23T08:21:37;97034.44;;;13.90;89.76
77240;BME280;66258;53.170;-2.240;2024-02-23T08:24:04;97027.41;;;14.04;89.59
77240;BME280;66258;53.170;-2.240;2024-02-23T08:26:31;97043.19;;;14.02;88.88
77240;BME280;66258;53.170;-2.240;2024-02-23T08:28:58;97029.59;;;14.07;88.72
77240;BME280;66258;53.170;-2.240;2024-02-23T08:31:26;97039.94;;;14.15;89.23
77240;BME280;66258;53.170;-2.240;2024-02-23T08:33:53;97036.47;;;14.30;88.77
77240;BME280;66258;53.170;-2.240;2024-02-23T08:36:19;97035.88;;;14.18;88.35
77240;BME280;66258;53.170;-2.240;2024-02-23T08:38:46;97047.31;;;14.20;88.77
77240;BME280;66258;53.170;-2.240;2024-02-23T08:41:13;97049.84;;;14.47;89.29
77240;BME280;66258;53.170;-2.240;2024-02-23T08:43:40;97053.13;;;14.64;88.65
77240;BME280;66258;53.170;-2.240;2024-02-23T08:46:06;97061.84;;;14.66;87.14
77240;BME280;66258;53.170;-2.240;2024-02-23T08:48:37;97058.56;;;14.54;86.35
77240;BME280;66258;53.170;-2.240;2024-02-23T08:51:04;97067.81;;;14.68;87.45
77240;BME280;66258;53.170;-2.240;2024-02-23T08:53:31;97071.91;;;14.70;86.86
77240;BME280;66258;53.170;-2.240;2024-02-23T08:55:57;97064.56;;;14.96;87.19
77240;BME280;66258;53.170;-2.240;2024-02-23T08:58:24;97063.44;;;15.18;86.88
77240;BME280;66258;53.170;-2.240;2024-02-23T09:00:51;97066.16;;;15.38;85.63
77240;BME280;66258;53.170;-2.240;2024-02-23T09:03:18;97066.41;;;15.57;84.21
77240;BME280;66258;53.170;-2.240;2024-02-23T09:05:46;97078.63;;;15.69;81.51
77240;BME280;66258;53.170;-2.240;2024-02-23T09:08:13;97076.19;;;15.73;79.56
77240;BME280;66258;53.170;-2.240;2024-02-23T09:10:39;97075.16;;;15.33;78.20
77240;BME280;66258;53.170;-2.240;2024-02-23T09:13:06;97071.56;;;15.43;79.14
77240;BME280;66258;53.170;-2.240;2024-02-23T09:15:33;97069.97;;;15.32;79.40
77240;BME280;66258;53.170;-2.240;2024-02-23T09:18:00;97078.09;;;15.72;80.40
77240;BME280;66258;53.170;-2.240;2024-02-23T09:20:26;97082.25;;;16.19;79.66
77240;BME280;66258;53.170;-2.240;2024-02-23T09:22:57;97079.44;;;16.39;76.36
77240;BME280;66258;53.170;-2.240;2024-02-23T09:25:24;97084.31;;;16.87;77.79
77240;BME280;66258;53.170;-2.240;2024-02-23T09:27:51;97081.38;;;17.12;73.18
77240;BME280;66258;53.170;-2.240;2024-02-23T09:30:18;97091.63;;;17.25;71.59
77240;BME280;66258;53.170;-2.240;2024-02-23T09:32:44;97090.13;;;17.09;69.80
77240;BME280;66258;53.170;-2.240;2024-02-23T09:35:11;97096.34;;;16.86;69.68
77240;BME280;66258;53.170;-2.240;2024-02-23T09:37:38;97103.66;;;16.46;69.72
77240;BME280;66258;53.170;-2.240;2024-02-23T09:40:07;97100.41;;;16.44;70.73
77240;BME280;66258;53.170;-2.240;2024-02-23T09:42:34;97096.47;;;16.65;72.17
77240;BME280;66258;53.170;-2.240;2024-02-23T09:45:02;97103.78;;;16.80;70.74
77240;BME280;66258;53.170;-2.240;2024-02-23T09:47:29;97108.91;;;17.21;69.58
77240;BME280;66258;53.170;-2.240;2024-02-23T09:49:56;97111.28;;;17.27;68.78
77240;BME280;66258;53.170;-2.240;2024-02-23T09:52:23;97110.06;;;16.80;67.54
77240;BME280;66258;53.170;-2.240;2024-02-23T09:54:50;97113.13;;;16.69;69.03
77240;BME280;66258;53.170;-2.240;2024-02-23T09:57:19;97110.94;;;16.66;68.60
77240;BME280;66258;53.170;-2.240;2024-02-23T09:59:48;97117.75;;;16.68;69.22
77240;BME280;66258;53.170;-2.240;2024-02-23T10:02:16;97122.44;;;16.58;68.83
77240;BME280;66258;53.170;-2.240;2024-02-23T10:04:44;97118.50;;;16.25;70.03
77240;BME280;66258;53.170;-2.240;2024-02-23T10:07:14;97126.94;;;16.33;70.89
77240;BME280;66258;53.170;-2.240;2024-02-23T10:09:41;97127.47;;;16.35;71.80
77240;BME280;66258;53.170;-2.240;2024-02-23T10:12:08;97130.78;;;16.32;70.38
77240;BME280;66258;53.170;-2.240;2024-02-23T10:14:36;97139.66;;;17.02;69.50
77240;BME280;66258;53.170;-2.240;2024-02-23T10:17:03;97140.88;;;17.54;69.29
77240;BME280;66258;53.170;-2.240;2024-02-23T10:19:33;97140.44;;;16.69;66.09
77240;BME280;66258;53.170;-2.240;2024-02-23T10:22:00;97139.19;;;16.90;68.62
77240;BME280;66258;53.170;-2.240;2024-02-23T10:24:27;97139.66;;;17.36;67.79
77240;BME280;66258;53.170;-2.240;2024-02-23T10:26:53;97137.47;;;17.67;66.53
77240;BME280;66258;53.170;-2.240;2024-02-23T10:29:20;97142.75;;;17.59;64.70
77240;BME280;66258;53.170;-2.240;2024-02-23T10:31:51;97150.19;;;17.82;64.73
77240;BME280;66258;53.170;-2.240;2024-02-23T10:34:19;97138.44;;;17.18;65.41
77240;BME280;66258;53.170;-2.240;2024-02-23T10:36:46;97148.84;;;17.16;64.62
77240;BME280;66258;53.170;-2.240;2024-02-23T10:39:16;97150.09;;;17.63;64.87
77240;BME280;66258;53.170;-2.240;2024-02-23T10:41:47;97155.31;;;17.89;63.50
77240;BME280;66258;53.170;-2.240;2024-02-23T10:44:16;97151.03;;;17.48;64.09
77240;BME280;66258;53.170;-2.240;2024-02-23T10:46:44;97166.03;;;18.09;63.61
77240;BME280;66258;53.170;-2.240;2024-02-23T10:49:14;97159.22;;;17.82;61.95
77240;BME280;66258;53.170;-2.240;2024-02-23T10:51:41;97161.09;;;17.53;63.64
77240;BME280;66258;53.170;-2.240;2024-02-23T10:54:10;97167.09;;;17.55;62.82
77240;BME280;66258;53.170;-2.240;2024-02-23T10:56:37;97164.63;;;17.88;62.03
77240;BME280;66258;53.170;-2.240;2024-02-23T10:59:04;97171.06;;;17.73;60.90
77240;BME280;66258;53.170;-2.240;2024-02-23T11:01:32;97178.28;;;17.59;60.17
77240;BME280;66258;53.170;-2.240;2024-02-23T11:04:00;97180.00;;;17.49;60.87
77240;BME280;66258;53.170;-2.240;2024-02-23T11:06:28;97180.97;;;17.35;60.61
77240;BME280;66258;53.170;-2.240;2024-02-23T11:09:04;97172.09;;;17.48;61.04
77240;BME280;66258;53.170;-2.240;2024-02-23T11:11:32;97172.47;;;17.36;62.06
77240;BME280;66258;53.170;-2.240;2024-02-23T11:14:02;97180.03;;;17.10;61.92
77240;BME280;66258;53.170;-2.240;2024-02-23T11:16:31;97172.91;;;17.14;60.38
77240;BME280;66258;53.170;-2.240;2024-02-23T11:19:03;97171.94;;;17.00;61.15
77240;BME280;66258;53.170;-2.240;2024-02-23T11:21:35;97176.16;;;17.22;61.84
77240;BME280;66258;53.170;-2.240;2024-02-23T11:24:03;97178.75;;;17.71;61.68
77240;BME280;66258;53.170;-2.240;2024-02-23T11:26:30;97188.69;;;18.38;59.16
77240;BME280;66258;53.170;-2.240;2024-02-23T11:28:57;97190.28;;;18.44;56.53
77240;BME280;66258;53.170;-2.240;2024-02-23T11:31:29;97186.53;;;18.11;57.18
77240;BME280;66258;53.170;-2.240;2024-02-23T11:33:57;97188.38;;;18.21;56.71
77240;BME280;66258;53.170;-2.240;2024-02-23T11:36:24;97182.50;;;17.80;55.92
77240;BME280;66258;53.170;-2.240;2024-02-23T11:38:57;97189.38;;;17.77;55.90
77240;BME280;66258;53.170;-2.240;2024-02-23T11:41:25;97186.75;;;17.91;56.97
77240;BME280;66258;53.170;-2.240;2024-02-23T11:43:52;97182.28;;;17.42;58.07
77240;BME280;66258;53.170;-2.240;2024-02-23T11:46:19;97174.91;;;17.72;58.46
77240;BME280;66258;53.170;-2.240;2024-02-23T11:48:46;97187.16;;;17.79;59.01
77240;BME280;66258;53.170;-2.240;2024-02-23T11:51:14;97189.91;;;17.79;58.22
77240;BME280;66258;53.170;-2.240;2024-02-23T11:53:41;97188.69;;;17.91;57.63
77240;BME280;66258;53.170;-2.240;2024-02-23T11:56:10;97189.56;;;18.10;57.20
77240;BME280;66258;53.170;-2.240;2024-02-23T11:58:37;97191.88;;;18.27;57.60
77240;BME280;66258;53.170;-2.240;2024-02-23T12:01:03;97187.97;;;17.80;56.63
77240;BME280;66258;53.170;-2.240;2024-02-23T12:03:31;97191.31;;;18.01;59.63
77240;BME280;66258;53.170;-2.240;2024-02-23T12:05:58;97185.03;;;18.00;58.55
77240;BME280;66258;53.170;-2.240;2024-02-23T12:08:25;97180.53;;;18.57;58.71
77240;BME280;66258;53.170;-2.240;2024-02-23T12:10:54;97188.44;;;18.59;57.18
77240;BME280;66258;53.170;-2.240;2024-02-23T12:13:22;97185.78;;;18.77;56.72
77240;BME280;66258;53.170;-2.240;2024-02-23T12:15:52;97199.97;;;18.61;56.64
77240;BME280;66258;53.170;-2.240;2024-02-23T12:18:21;97198.03;;;18.61;55.72
77240;BME280;66258;53.170;-2.240;2024-02-23T12:20:48;97210.66;;;18.81;54.79
77240;BME280;66258;53.170;-2.240;2024-02-23T12:23:15;97203.63;;;17.74;55.38
77240;BME280;66258;53.170;-2.240;2024-02-23T12:25:52;97203.75;;;17.54;56.83
77240;BME280;66258;53.170;-2.240;2024-02-23T12:28:19;97210.78;;;17.31;57.10
77240;BME280;66258;53.170;-2.240;2024-02-23T12:30:58;97209.78;;;16.68;60.34
77240;BME280;66258;53.170;-2.240;2024-02-23T12:33:27;97211.00;;;16.31;61.98
77240;BME280;66258;53.170;-2.240;2024-02-23T12:35:54;97208.13;;;15.87;64.41
77240;BME280;66258;53.170;-2.240;2024-02-23T12:38:21;97215.25;;;15.78;67.07
77240;BME280;66258;53.170;-2.240;2024-02-23T12:40:48;97210.03;;;15.92;66.35
77240;BME280;66258;53.170;-2.240;2024-02-23T12:43:14;97207.31;;;15.87;68.14
77240;BME280;66258;53.170;-2.240;2024-02-23T12:45:42;97215.47;;;15.97;69.06
77240;BME280;66258;53.170;-2.240;2024-02-23T12:48:10;97207.25;;;16.17;70.19
77240;BME280;66258;53.170;-2.240;2024-02-23T12:50:37;97211.00;;;16.31;71.56